createdAt,value
2019-04-27T00:01:05.260Z,1.10
2019-04-27T00:03:46.449Z,1.33
2019-04-27T00:06:15.114Z,1.13
2019-04-27T00:08:54.680Z,1.40
2019-04-27T00:11:27.671Z,1.40
2019-04-27T00:13:55.584Z,1.40
2019-04-27T00:16:50.807Z,1.23
2019-04-27T00:19:40.605Z,1.47
2019-04-27T00:22:12.955Z,1.30
2019-04-27T00:24:44.094Z,1.20
2019-04-27T00:27:13.243Z,1.30
2019-04-27T00:29:40.951Z,1.20
2019-04-27T00:32:08.471Z,1.30
2019-04-27T00:34:36.295Z,0.93
2019-04-27T00:37:13.871Z,1.00
2019-04-27T00:40:03.563Z,1.30
2019-04-27T00:42:33.333Z,1.10
2019-04-27T00:45:02.994Z,0.97
2019-04-27T00:47:32.753Z,1.37
2019-04-27T00:50:00.906Z,1.23
2019-04-27T00:52:28.688Z,1.17
2019-04-27T00:54:56.234Z,1.30
2019-04-27T00:57:50.764Z,1.00
2019-04-27T01:00:37.418Z,1.07
2019-04-27T01:03:10.730Z,1.10
2019-04-27T01:05:38.229Z,1.27
2019-04-27T01:08:06.067Z,1.03
2019-04-27T01:10:33.752Z,1.03
2019-04-27T01:13:03.159Z,1.40
2019-04-27T01:15:31.319Z,0.93
2019-04-27T01:18:11.536Z,1.40
2019-04-27T01:20:30.109Z,1.00
2019-04-27T01:22:59.436Z,1.13
2019-04-27T01:25:35.705Z,1.23
2019-04-27T01:28:28.941Z,1.20
2019-04-27T01:31:01.104Z,0.90
2019-04-27T01:33:30.320Z,1.70
2019-04-27T01:35:58.904Z,1.93
2019-04-27T01:38:26.426Z,1.03
2019-04-27T01:40:54.070Z,1.10
2019-04-27T01:43:21.420Z,1.10
2019-04-27T01:45:48.877Z,1.00
2019-04-27T01:48:23.684Z,1.30
2019-04-27T01:50:46.207Z,1.17
2019-04-27T01:53:13.766Z,1.00
2019-04-27T01:55:41.164Z,0.87
2019-04-27T01:58:10.997Z,0.77
2019-04-27T02:01:03.312Z,1.20
2019-04-27T02:03:48.895Z,1.23
2019-04-27T02:06:16.489Z,1.10
2019-04-27T02:08:43.914Z,1.43
2019-04-27T02:11:11.764Z,1.57
2019-04-27T02:13:40.323Z,0.93
2019-04-27T02:16:09.002Z,1.43
2019-04-27T02:18:38.233Z,1.23
2019-04-27T02:21:06.278Z,1.07
2019-04-27T02:23:34.038Z,1.27
2019-04-27T02:26:03.338Z,1.47
2019-04-27T02:28:39.387Z,1.33
2019-04-27T02:31:32.459Z,1.13
2019-04-27T02:34:06.707Z,1.30
2019-04-27T02:36:34.172Z,1.30
2019-04-27T02:39:01.983Z,1.37
2019-04-27T02:41:31.258Z,1.00
2019-04-27T02:44:14.222Z,1.23
2019-04-27T02:46:41.684Z,1.30
2019-04-27T02:49:10.551Z,1.37
2019-04-27T02:51:51.154Z,0.97
2019-04-27T02:54:20.422Z,0.70
2019-04-27T02:56:50.050Z,1.33
2019-04-27T02:59:19.760Z,1.03
2019-04-27T03:02:10.950Z,1.20
2019-04-27T03:04:39.942Z,1.17
2019-04-27T03:07:07.800Z,1.27
2019-04-27T03:09:35.684Z,0.93
2019-04-27T03:12:04.676Z,0.97
2019-04-27T03:14:50.742Z,1.23
2019-04-27T03:17:39.604Z,0.60
2019-04-27T03:20:27.131Z,0.93
2019-04-27T03:23:00.060Z,0.80
2019-04-27T03:25:45.447Z,0.80
2019-04-27T03:28:14.937Z,0.90
2019-04-27T03:30:43.484Z,1.30
2019-04-27T03:33:12.216Z,0.90
2019-04-27T03:35:42.879Z,0.90
2019-04-27T03:38:10.388Z,1.33
2019-04-27T03:40:40.339Z,1.00
2019-04-27T03:43:19.973Z,1.00
2019-04-27T03:45:49.717Z,0.83
2019-04-27T03:48:20.184Z,0.77
2019-04-27T03:51:09.698Z,0.70
2019-04-27T03:54:00.592Z,1.07
2019-04-27T03:56:40.451Z,1.20
2019-04-27T03:59:21.359Z,1.20
2019-04-27T04:01:50.634Z,0.90
2019-04-27T04:04:19.598Z,0.90
2019-04-27T04:06:49.216Z,1.27
2019-04-27T04:09:16.479Z,1.00
2019-04-27T04:12:02.277Z,0.90
2019-04-27T04:14:30.209Z,0.93
2019-04-27T04:17:02.896Z,1.13
2019-04-27T04:19:47.358Z,0.90
2019-04-27T04:21:59.950Z,1.20
2019-04-27T04:24:29.374Z,1.53
2019-04-27T04:26:56.969Z,1.10
2019-04-27T04:29:24.339Z,1.00
2019-04-27T04:31:51.986Z,0.90
2019-04-27T04:34:19.953Z,0.90
2019-04-27T04:36:50.161Z,0.93
2019-04-27T04:39:19.586Z,0.90
2019-04-27T04:41:54.790Z,1.10
2019-04-27T04:44:40.278Z,0.93
2019-04-27T04:47:19.398Z,0.83
2019-04-27T04:49:46.117Z,1.13
2019-04-27T04:52:13.659Z,1.30
2019-04-27T04:54:41.303Z,1.00
2019-04-27T04:57:09.341Z,1.43
2019-04-27T04:59:39.027Z,1.50
2019-04-27T05:02:06.841Z,1.00
2019-04-27T05:04:34.924Z,0.90
2019-04-27T05:07:02.605Z,1.40
2019-04-27T05:09:30.338Z,0.80
2019-04-27T05:11:58.740Z,1.00
2019-04-27T05:14:28.688Z,1.30
2019-04-27T05:16:56.158Z,1.23
2019-04-27T05:19:24.529Z,1.70
2019-04-27T05:21:52.244Z,1.70
2019-04-27T05:24:19.698Z,1.87
2019-04-27T05:26:48.714Z,1.80
2019-04-27T05:29:18.923Z,1.37
2019-04-27T05:31:46.452Z,1.50
2019-04-27T05:34:13.778Z,1.67
2019-04-27T05:36:48.354Z,1.80
2019-04-27T05:39:13.246Z,2.03
2019-04-27T05:41:41.699Z,1.30
2019-04-27T05:44:41.382Z,1.87
2019-04-27T05:47:25.432Z,1.23
2019-04-27T05:49:58.822Z,1.37
2019-04-27T05:52:29.041Z,1.73
2019-04-27T05:54:58.988Z,1.50
2019-04-27T05:57:30.828Z,1.33
2019-04-27T05:59:58.896Z,1.00
2019-04-27T06:02:30.268Z,1.30
2019-04-27T06:04:59.835Z,1.53
2019-04-27T06:07:29.416Z,1.60
2019-04-27T06:09:56.867Z,1.43
2019-04-27T06:12:24.329Z,2.07
2019-04-27T06:14:51.737Z,1.70
2019-04-27T06:17:19.567Z,1.67
2019-04-27T06:19:47.079Z,1.50
2019-04-27T06:22:14.966Z,1.50
2019-04-27T06:24:42.740Z,1.60
2019-04-27T06:27:10.238Z,1.43
2019-04-27T06:29:40.771Z,1.90
2019-04-27T06:32:08.989Z,1.50
2019-04-27T06:34:39.033Z,1.60
2019-04-27T06:37:06.842Z,2.23
2019-04-27T06:39:34.254Z,2.30
2019-04-27T06:42:15.626Z,2.60
2019-04-27T06:44:32.025Z,2.13
2019-04-27T06:46:59.748Z,2.27
2019-04-27T06:49:29.378Z,2.17
2019-04-27T06:51:58.646Z,2.77
2019-04-27T06:54:28.679Z,2.50
2019-04-27T06:56:56.185Z,2.10
2019-04-27T06:59:23.682Z,2.83
2019-04-27T07:01:51.029Z,2.57
2019-04-27T07:04:19.561Z,2.70
2019-04-27T07:06:54.110Z,3.30
2019-04-27T07:09:16.731Z,3.17
2019-04-27T07:11:44.284Z,3.70
2019-04-27T07:14:12.073Z,3.27
2019-04-27T07:16:39.447Z,3.23
2019-04-27T07:19:06.994Z,3.17
2019-04-27T07:21:35.152Z,3.20
2019-04-27T07:24:02.649Z,3.20
2019-04-27T07:26:30.432Z,3.30
2019-04-27T07:28:59.599Z,2.70
2019-04-27T07:31:29.483Z,2.67
2019-04-27T07:33:56.686Z,2.63
2019-04-27T07:36:26.225Z,2.40
2019-04-27T07:38:53.902Z,2.43
2019-04-27T07:41:21.501Z,1.83
2019-04-27T07:44:16.537Z,1.93
2019-04-27T07:46:45.824Z,1.97
2019-04-27T07:49:13.956Z,1.50
2019-04-27T07:51:41.585Z,1.70
2019-04-27T07:54:09.056Z,1.53
2019-04-27T07:56:36.852Z,1.33
2019-04-27T07:59:04.193Z,1.60
2019-04-27T08:01:31.657Z,1.47
2019-04-27T08:03:59.501Z,1.70
2019-04-27T08:06:28.972Z,1.70
2019-04-27T08:08:56.851Z,1.27
2019-04-27T08:11:24.616Z,1.47
2019-04-27T08:13:52.779Z,1.70
2019-04-27T08:16:20.773Z,2.03
2019-04-27T08:18:49.626Z,1.53
2019-04-27T08:21:18.871Z,1.47
2019-04-27T08:23:46.586Z,2.03
2019-04-27T08:26:25.126Z,2.10
2019-04-27T08:29:02.652Z,2.77
2019-04-27T08:31:36.363Z,2.93
2019-04-27T08:34:04.186Z,3.57
2019-04-27T08:36:31.799Z,2.43
2019-04-27T08:38:59.140Z,2.63
2019-04-27T08:41:26.585Z,3.10
2019-04-27T08:43:54.055Z,2.77
2019-04-27T08:46:21.919Z,2.80
2019-04-27T08:48:49.448Z,3.50
2019-04-27T08:51:16.890Z,2.80
2019-04-27T08:53:44.269Z,2.90
2019-04-27T08:56:12.434Z,2.33
2019-04-27T08:58:39.957Z,2.43
2019-04-27T09:01:09.979Z,2.90
2019-04-27T09:03:37.026Z,2.10
2019-04-27T09:06:09.141Z,2.97
2019-04-27T09:08:43.080Z,2.60
2019-04-27T09:11:25.918Z,2.70
2019-04-27T09:14:19.283Z,2.90
2019-04-27T09:17:12.294Z,2.50
2019-04-27T09:19:49.901Z,1.77
2019-04-27T09:22:20.530Z,2.50
2019-04-27T09:24:47.336Z,3.40
2019-04-27T09:27:17.342Z,2.70
2019-04-27T09:29:45.986Z,3.30
2019-04-27T09:32:13.668Z,2.97
2019-04-27T09:34:41.439Z,2.90
2019-04-27T09:37:08.945Z,2.80
2019-04-27T09:39:36.222Z,2.50
2019-04-27T09:42:03.732Z,3.63
2019-04-27T09:44:31.475Z,2.83
2019-04-27T09:46:58.969Z,3.27
2019-04-27T09:49:26.707Z,3.17
2019-04-27T09:51:55.695Z,2.70
2019-04-27T09:54:23.744Z,3.67
2019-04-27T09:56:51.381Z,2.90
2019-04-27T09:59:18.876Z,3.97
2019-04-27T10:01:46.625Z,2.97
2019-04-27T10:04:15.698Z,3.37
2019-04-27T10:06:43.676Z,2.87
2019-04-27T10:09:11.427Z,3.13
2019-04-27T10:11:39.980Z,2.90
2019-04-27T10:14:07.331Z,3.30
2019-04-27T10:16:36.574Z,3.20
2019-04-27T10:19:04.251Z,3.40
2019-04-27T10:21:31.757Z,2.60
2019-04-27T10:23:59.092Z,2.73
2019-04-27T10:26:26.893Z,2.83
2019-04-27T10:28:55.980Z,2.80
2019-04-27T10:31:23.661Z,3.80
2019-04-27T10:33:51.575Z,2.77
2019-04-27T10:36:38.358Z,2.80
2019-04-27T10:39:07.515Z,3.57
2019-04-27T10:41:36.927Z,2.37
2019-04-27T10:44:07.524Z,2.83
2019-04-27T10:46:35.310Z,4.40
2019-04-27T10:49:03.494Z,2.30
2019-04-27T10:51:31.214Z,2.83
2019-04-27T10:53:58.824Z,2.50
2019-04-27T10:56:27.352Z,2.93
2019-04-27T10:58:55.841Z,2.23
2019-04-27T11:01:23.670Z,2.30
2019-04-27T11:03:58.572Z,3.03
2019-04-27T11:06:30.166Z,3.20
2019-04-27T11:08:57.760Z,3.03
2019-04-27T11:11:27.805Z,2.90
2019-04-27T11:13:57.206Z,3.27
2019-04-27T11:16:24.877Z,2.87
2019-04-27T11:18:52.261Z,3.40
2019-04-27T11:21:19.769Z,2.80
2019-04-27T11:23:47.928Z,2.30
2019-04-27T11:26:16.060Z,2.70
2019-04-27T11:28:43.785Z,2.17
2019-04-27T11:31:11.533Z,2.57
2019-04-27T11:33:39.493Z,3.30
2019-04-27T11:36:25.629Z,2.20
2019-04-27T11:38:54.146Z,2.50
2019-04-27T11:41:21.676Z,1.83
2019-04-27T11:43:50.648Z,2.00
2019-04-27T11:46:18.417Z,2.00
2019-04-27T11:48:46.577Z,2.10
2019-04-27T11:51:17.091Z,1.27
2019-04-27T11:53:43.913Z,1.40
2019-04-27T11:56:11.355Z,1.50
2019-04-27T11:58:39.239Z,1.30
2019-04-27T12:01:08.432Z,1.77
2019-04-27T12:03:36.711Z,0.93
2019-04-27T12:06:04.565Z,1.30
2019-04-27T12:08:32.100Z,1.00
2019-04-27T12:10:59.831Z,0.80
2019-04-27T12:13:27.350Z,1.00
2019-04-27T12:15:55.162Z,0.70
2019-04-27T12:18:22.767Z,1.13
2019-04-27T12:20:50.836Z,1.23
2019-04-27T12:23:19.188Z,1.10
2019-04-27T12:25:46.911Z,0.90
2019-04-27T12:28:37.149Z,1.10
2019-04-27T12:31:25.702Z,0.80
2019-04-27T12:33:53.282Z,0.87
2019-04-27T12:36:20.773Z,0.70
2019-04-27T12:38:48.520Z,0.70
2019-04-27T12:41:15.874Z,0.60
2019-04-27T12:43:43.472Z,0.50
2019-04-27T12:46:10.992Z,0.80
2019-04-27T12:48:41.937Z,0.63
2019-04-27T12:51:09.729Z,0.80
2019-04-27T12:53:52.909Z,0.80
2019-04-27T12:56:49.864Z,0.63
2019-04-27T12:59:36.866Z,0.80
2019-04-27T13:02:06.287Z,0.70
2019-04-27T13:04:33.877Z,0.70
2019-04-27T13:07:01.790Z,0.77
2019-04-27T13:09:29.182Z,0.93
2019-04-27T13:11:56.856Z,0.90
2019-04-27T13:14:24.180Z,0.80
2019-04-27T13:16:51.550Z,0.60
2019-04-27T13:19:18.897Z,0.80
2019-04-27T13:21:47.051Z,0.50
2019-04-27T13:24:14.696Z,0.70
2019-04-27T13:26:42.093Z,1.03
2019-04-27T13:29:10.928Z,1.00
2019-04-27T13:31:39.199Z,1.80
2019-04-27T13:34:06.666Z,1.23
2019-04-27T13:36:36.781Z,1.03
2019-04-27T13:39:06.316Z,0.67
2019-04-27T13:41:36.352Z,0.80
2019-04-27T13:44:03.893Z,1.00
2019-04-27T13:46:55.858Z,0.60
2019-04-27T13:49:49.547Z,0.80
2019-04-27T13:52:20.328Z,0.77
2019-04-27T13:54:48.148Z,0.67
2019-04-27T13:57:18.153Z,0.70
2019-04-27T13:59:45.012Z,0.63
2019-04-27T14:02:13.552Z,1.13
2019-04-27T14:04:41.466Z,1.20
2019-04-27T14:07:09.144Z,0.73
2019-04-27T14:09:39.311Z,0.70
2019-04-27T14:12:16.662Z,0.80
2019-04-27T14:14:44.084Z,0.50
2019-04-27T14:17:11.765Z,1.10
2019-04-27T14:19:40.328Z,0.83
2019-04-27T14:22:09.168Z,2.10
2019-04-27T14:24:39.274Z,1.03
2019-04-27T14:27:07.309Z,1.00
2019-04-27T14:29:34.720Z,1.40
2019-04-27T14:32:03.018Z,0.93
2019-04-27T14:34:30.994Z,0.97
2019-04-27T14:36:58.817Z,1.00
2019-04-27T14:39:26.383Z,0.93
2019-04-27T14:41:53.745Z,1.27
2019-04-27T14:44:21.148Z,1.57
2019-04-27T14:46:48.675Z,1.63
2019-04-27T14:49:19.560Z,1.20
2019-04-27T14:51:46.218Z,0.90
2019-04-27T14:54:13.634Z,1.70
2019-04-27T14:56:41.279Z,1.33
2019-04-27T14:59:08.952Z,1.20
2019-04-27T15:01:39.443Z,1.20
2019-04-27T15:04:07.618Z,1.50
2019-04-27T15:06:36.301Z,1.00
2019-04-27T15:09:05.888Z,1.33
2019-04-27T15:11:34.715Z,1.27
2019-04-27T15:14:04.452Z,1.70
2019-04-27T15:16:31.995Z,1.57
2019-04-27T15:19:03.276Z,1.77
2019-04-27T15:21:32.698Z,1.43
2019-04-27T15:24:02.465Z,3.00
2019-04-27T15:26:30.852Z,3.37
2019-04-27T15:29:00.636Z,2.00
2019-04-27T15:31:35.689Z,1.83
2019-04-27T15:34:34.056Z,1.57
2019-04-27T15:37:14.640Z,3.30
2019-04-27T15:40:10.102Z,4.80
2019-04-27T15:42:49.038Z,3.13
2019-04-27T15:45:12.082Z,2.73
2019-04-27T15:47:42.536Z,3.63
2019-04-27T15:50:09.190Z,2.77
2019-04-27T15:52:38.242Z,2.57
2019-04-27T15:55:09.811Z,2.80
2019-04-27T15:57:36.037Z,2.83
2019-04-27T16:00:04.733Z,2.70
2019-04-27T16:02:33.199Z,2.30
2019-04-27T16:05:01.467Z,2.37
2019-04-27T16:07:32.023Z,1.70
2019-04-27T16:10:02.424Z,1.97
2019-04-27T16:12:28.490Z,1.83
2019-04-27T16:14:58.006Z,2.93
2019-04-27T16:17:26.052Z,1.83
2019-04-27T16:19:53.569Z,1.87
2019-04-27T16:22:22.596Z,2.43
2019-04-27T16:24:53.564Z,1.87
2019-04-27T16:27:21.006Z,2.00
2019-04-27T16:29:49.275Z,2.70
2019-04-27T16:32:17.316Z,1.80
2019-04-27T16:34:45.417Z,2.10
2019-04-27T16:37:22.799Z,1.93
2019-04-27T16:39:50.675Z,1.93
2019-04-27T16:42:18.598Z,1.73
2019-04-27T16:44:51.436Z,2.10
2019-04-27T16:47:18.275Z,3.83
2019-04-27T16:49:48.334Z,2.27
2019-04-27T16:52:16.048Z,1.53
2019-04-27T16:54:44.779Z,1.90
2019-04-27T16:57:12.320Z,2.43
2019-04-27T16:59:46.044Z,3.13
2019-04-27T17:02:09.329Z,2.07
2019-04-27T17:04:38.766Z,1.67
2019-04-27T17:07:08.679Z,1.90
2019-04-27T17:09:36.421Z,1.70
2019-04-27T17:12:05.123Z,1.80
2019-04-27T17:14:49.363Z,1.77
2019-04-27T17:17:42.834Z,1.27
2019-04-27T17:20:13.054Z,2.27
2019-04-27T17:22:38.892Z,2.10
2019-04-27T17:25:08.934Z,2.10
2019-04-27T17:27:48.497Z,2.00
2019-04-27T17:30:16.432Z,1.90
2019-04-27T17:32:58.813Z,1.73
2019-04-27T17:35:28.533Z,1.57
2019-04-27T17:37:59.370Z,2.50
2019-04-27T17:40:29.926Z,2.77
2019-04-27T17:42:55.271Z,1.60
2019-04-27T17:45:23.729Z,1.67
2019-04-27T17:47:51.413Z,1.73
2019-04-27T17:50:24.957Z,1.87
2019-04-27T17:52:54.623Z,1.63
2019-04-27T17:55:24.112Z,1.57
2019-04-27T17:57:48.697Z,1.70
2019-04-27T18:00:18.922Z,1.63
2019-04-27T18:02:46.840Z,1.57
2019-04-27T18:05:15.092Z,1.23
2019-04-27T18:07:44.342Z,2.00
2019-04-27T18:10:13.322Z,2.27
2019-04-27T18:12:44.416Z,1.70
2019-04-27T18:15:14.601Z,1.30
2019-04-27T18:17:48.217Z,1.67
2019-04-27T18:20:12.968Z,1.70
2019-04-27T18:22:45.074Z,1.70
2019-04-27T18:25:12.655Z,2.00
2019-04-27T18:27:53.318Z,1.60
2019-04-27T18:30:45.426Z,2.93
2019-04-27T18:33:13.443Z,2.10
2019-04-27T18:35:40.920Z,2.10
2019-04-27T18:38:08.684Z,2.47
2019-04-27T18:40:38.150Z,2.60
2019-04-27T18:43:06.379Z,2.27
2019-04-27T18:45:38.062Z,2.50
2019-04-27T18:48:13.609Z,1.87
2019-04-27T18:51:02.960Z,1.97
2019-04-27T18:53:43.152Z,1.67
2019-04-27T18:56:10.682Z,2.50
2019-04-27T18:58:38.715Z,1.97
2019-04-27T19:01:06.484Z,2.70
2019-04-27T19:03:34.032Z,2.40
2019-04-27T19:06:01.557Z,1.93
2019-04-27T19:08:29.060Z,1.90
2019-04-27T19:11:00.064Z,2.13
2019-04-27T19:13:27.173Z,1.90
2019-04-27T19:15:54.685Z,1.30
2019-04-27T19:18:22.117Z,1.60
2019-04-27T19:20:49.719Z,1.57
2019-04-27T19:23:17.104Z,2.27
2019-04-27T19:26:08.777Z,1.37
2019-04-27T19:28:58.263Z,1.57
2019-04-27T19:31:29.784Z,1.87
2019-04-27T19:33:57.229Z,1.63
2019-04-27T19:36:27.927Z,1.30
2019-04-27T19:38:56.297Z,1.80
2019-04-27T19:41:24.065Z,1.43
2019-04-27T19:43:51.830Z,1.43
2019-04-27T19:46:20.011Z,1.50
2019-04-27T19:48:47.602Z,2.00
2019-04-27T19:51:15.347Z,1.47
2019-04-27T19:53:42.867Z,1.50
2019-04-27T19:56:10.514Z,1.60
2019-04-27T19:58:42.633Z,1.57
2019-04-27T20:01:15.040Z,1.87
2019-04-27T20:03:49.447Z,1.70
2019-04-27T20:06:18.805Z,2.57
2019-04-27T20:08:49.020Z,2.77
2019-04-27T20:11:16.393Z,2.83
2019-04-27T20:13:43.854Z,3.47
2019-04-27T20:16:11.337Z,2.53
2019-04-27T20:18:39.150Z,2.70
2019-04-27T20:21:06.481Z,2.57
2019-04-27T20:23:33.933Z,11.00
2019-04-27T20:26:01.610Z,9.03
2019-04-27T20:28:31.423Z,5.17
2019-04-27T20:30:59.133Z,3.13
2019-04-27T20:33:26.490Z,2.37
2019-04-27T20:35:53.844Z,3.03
2019-04-27T20:38:21.492Z,2.77
2019-04-27T20:40:48.897Z,2.00
2019-04-27T20:43:16.580Z,1.80
2019-04-27T20:45:44.107Z,2.50
2019-04-27T20:48:12.461Z,2.10
2019-04-27T20:50:41.201Z,1.60
2019-04-27T20:53:12.897Z,1.60
2019-04-27T20:55:40.642Z,1.47
2019-04-27T20:58:08.698Z,2.20
2019-04-27T21:00:36.618Z,1.40
2019-04-27T21:03:16.735Z,2.20
2019-04-27T21:06:02.310Z,2.00
2019-04-27T21:08:31.526Z,1.20
2019-04-27T21:10:59.434Z,1.90
2019-04-27T21:13:26.958Z,2.00
2019-04-27T21:15:54.485Z,1.43
2019-04-27T21:18:22.458Z,1.70
2019-04-27T21:20:51.174Z,1.57
2019-04-27T21:23:20.890Z,1.80
2019-04-27T21:25:51.286Z,1.47
2019-04-27T21:28:19.120Z,1.70
2019-04-27T21:30:46.653Z,1.97
2019-04-27T21:33:14.002Z,2.03
2019-04-27T21:35:41.926Z,1.60
2019-04-27T21:38:11.684Z,1.70
2019-04-27T21:40:40.844Z,2.60
2019-04-27T21:43:08.458Z,2.00
2019-04-27T21:45:36.283Z,1.83
2019-04-27T21:48:03.639Z,1.80
2019-04-27T21:50:31.568Z,1.70
2019-04-27T21:53:14.629Z,1.70
2019-04-27T21:55:42.287Z,1.50
2019-04-27T21:58:11.581Z,1.67
2019-04-27T22:00:57.400Z,1.67
2019-04-27T22:03:31.160Z,1.30
2019-04-27T22:05:58.957Z,1.53
2019-04-27T22:08:26.303Z,1.20
2019-04-27T22:10:54.039Z,1.27
2019-04-27T22:13:22.325Z,1.50
2019-04-27T22:15:49.976Z,1.20
2019-04-27T22:18:18.058Z,1.30
2019-04-27T22:20:45.599Z,1.40
2019-04-27T22:23:23.139Z,1.50
2019-04-27T22:25:52.057Z,1.60
2019-04-27T22:28:20.242Z,1.30
2019-04-27T22:30:47.917Z,1.10
2019-04-27T22:33:15.468Z,1.40
2019-04-27T22:35:42.807Z,1.43
2019-04-27T22:38:11.935Z,1.60
2019-04-27T22:41:02.080Z,1.77
2019-04-27T22:43:51.720Z,1.67
2019-04-27T22:46:21.728Z,1.40
2019-04-27T22:48:49.239Z,1.30
2019-04-27T22:51:16.610Z,1.23
2019-04-27T22:53:44.364Z,1.57
2019-04-27T22:56:16.972Z,1.30
2019-04-27T22:58:58.550Z,1.27
2019-04-27T23:01:42.660Z,1.63
2019-04-27T23:04:11.974Z,2.27
2019-04-27T23:06:41.840Z,1.73
2019-04-27T23:09:11.744Z,1.40
2019-04-27T23:11:41.510Z,1.50
2019-04-27T23:14:11.058Z,1.87
2019-04-27T23:16:42.096Z,1.83
2019-04-27T23:19:10.893Z,1.77
2019-04-27T23:21:39.149Z,1.30
2019-04-27T23:24:06.932Z,1.50
2019-04-27T23:26:34.322Z,2.07
2019-04-27T23:29:12.977Z,2.90
2019-04-27T23:31:53.562Z,1.70
2019-04-27T23:34:21.667Z,1.60
2019-04-27T23:36:49.163Z,1.73
2019-04-27T23:39:17.661Z,2.83
2019-04-27T23:41:45.167Z,1.80
2019-04-27T23:44:12.521Z,1.57
2019-04-27T23:46:40.679Z,1.70
2019-04-27T23:49:08.039Z,1.30
2019-04-27T23:51:44.518Z,2.03
2019-04-27T23:54:12.664Z,1.90
2019-04-27T23:56:41.917Z,1.77
2019-04-27T23:59:09.703Z,1.33
